Ana Sayfa
METAR-TAF:

METAR-TAF

Havaalanları :

Kisarazu, Japonya

Enlem: 35-24N, Boylam: 139-55E, yükseklik: 3 m

Güncel hava durumu gözlemi

Rapor saat 06:15 UTC de 7 saat ve 58 dakika önce yapıldı.
Rüzgar güney/güneybatıdan 19 kt
Sıcaklık 27°C
Nem 74%
Basınç 1005 hPa
Görüş mesafesi 10 km veya daha fazla
10000 ft yükseklikte az bulutlu
18000 ft yükseklikte parçalı çok bulutlu
21000 ft yükseklikte parçalı çok bulutlu

METAR: RJTK 250615Z 20019KT 9999 FEW100 BKN180 BKN210 27/22 Q1005 RMK 1AC100 5AC180 6CI210 A2969

Saat: 23:13 (14:13 UTC)


TAF: eksik

4.000'den fazla havaalanı için hava durumu gözlemleri ve tahminleri (METAR ve TAF raporları).

Kullanılabilir istasyonlar harita üzerinde sarı ve kırmızı noktalarla gösterilir.

İstasyonun adını görmek için fareyi noktanın üzerinde gezdirin.

Sonrasında hava gözlem ve tahminlerini görmek için tıklayın.

Haritayı değiştirmek için: yaklaştırmak için siyah artı işaretli yeşil düğmeye ve uzaklaştırmak için de eksi işaretli düğmeye hızla tıklayın; bitişik haritalar için yeşil okları kullanın.


METAR-TAF: